sensor_id;sensor_type;location;lat;lon;timestamp;noise_LAeq;noise_LA_min;noise_LA_max;noise_LA01;noise_LA95
82130;Laerm;75912;50.450;9.816;2024-03-23T00:54:22;54.31;33.48;70.53;;
82130;Laerm;75912;50.450;9.816;2024-03-23T00:56:48;55.26;33.68;71.37;;
82130;Laerm;75912;50.450;9.816;2024-03-23T00:59:13;53.86;33.21;71.51;;
82130;Laerm;75912;50.450;9.816;2024-03-23T01:01:39;35.37;33.13;42.36;;
82130;Laerm;75912;50.450;9.816;2024-03-23T01:04:04;38.86;33.37;56.58;;
82130;Laerm;75912;50.450;9.816;2024-03-23T01:06:29;40.99;33.59;57.15;;
82130;Laerm;75912;50.450;9.816;2024-03-23T01:08:55;59.80;32.87;76.88;;
82130;Laerm;75912;50.450;9.816;2024-03-23T01:11:20;58.44;33.16;73.00;;
82130;Laerm;75912;50.450;9.816;2024-03-23T01:13:45;52.27;33.35;68.34;;
82130;Laerm;75912;50.450;9.816;2024-03-23T01:16:11;58.44;33.08;78.73;;
82130;Laerm;75912;50.450;9.816;2024-03-23T01:18:36;55.56;32.98;71.85;;
82130;Laerm;75912;50.450;9.816;2024-03-23T01:21:01;51.77;32.80;70.71;;
82130;Laerm;75912;50.450;9.816;2024-03-23T01:23:27;34.21;32.93;36.97;;
82130;Laerm;75912;50.450;9.816;2024-03-23T01:25:52;57.25;33.11;76.14;;
82130;Laerm;75912;50.450;9.816;2024-03-23T01:28:18;56.76;33.33;74.04;;
82130;Laerm;75912;50.450;9.816;2024-03-23T01:30:44;42.42;32.35;61.45;;
82130;Laerm;75912;50.450;9.816;2024-03-23T01:33:09;33.63;32.45;38.27;;
82130;Laerm;75912;50.450;9.816;2024-03-23T01:35:35;53.20;32.79;71.87;;
82130;Laerm;75912;50.450;9.816;2024-03-23T01:38:00;34.79;32.97;39.77;;
82130;Laerm;75912;50.450;9.816;2024-03-23T01:40:25;53.66;33.17;72.01;;
82130;Laerm;75912;50.450;9.816;2024-03-23T01:42:55;44.99;32.61;63.33;;
82130;Laerm;75912;50.450;9.816;2024-03-23T01:45:21;56.77;33.13;72.37;;
82130;Laerm;75912;50.450;9.816;2024-03-23T01:47:46;39.04;33.15;56.99;;
82130;Laerm;75912;50.450;9.816;2024-03-23T01:50:14;54.60;32.54;72.54;;
82130;Laerm;75912;50.450;9.816;2024-03-23T01:52:39;33.72;32.70;36.49;;
82130;Laerm;75912;50.450;9.816;2024-03-23T01:55:05;33.87;32.62;37.62;;
82130;Laerm;75912;50.450;9.816;2024-03-23T01:57:30;34.45;33.05;40.49;;
82130;Laerm;75912;50.450;9.816;2024-03-23T01:59:55;52.64;32.92;70.50;;
82130;Laerm;75912;50.450;9.816;2024-03-23T02:02:21;44.59;32.76;60.60;;
82130;Laerm;75912;50.450;9.816;2024-03-23T02:04:46;44.28;32.86;60.49;;
82130;Laerm;75912;50.450;9.816;2024-03-23T02:07:11;36.60;32.94;52.57;;
82130;Laerm;75912;50.450;9.816;2024-03-23T02:09:37;53.16;33.03;70.91;;
82130;Laerm;75912;50.450;9.816;2024-03-23T02:12:02;52.57;33.45;70.31;;
82130;Laerm;75912;50.450;9.816;2024-03-23T02:14:28;59.24;34.78;75.30;;
82130;Laerm;75912;50.450;9.816;2024-03-23T02:16:53;56.12;33.27;77.96;;
82130;Laerm;75912;50.450;9.816;2024-03-23T02:19:18;48.55;33.28;66.72;;
82130;Laerm;75912;50.450;9.816;2024-03-23T02:21:44;34.71;33.19;39.34;;
82130;Laerm;75912;50.450;9.816;2024-03-23T02:24:09;54.99;33.33;72.88;;
82130;Laerm;75912;50.450;9.816;2024-03-23T02:26:34;46.96;32.90;64.67;;
82130;Laerm;75912;50.450;9.816;2024-03-23T02:29:00;34.05;33.05;36.65;;
82130;Laerm;75912;50.450;9.816;2024-03-23T02:31:25;46.85;33.00;64.75;;
82130;Laerm;75912;50.450;9.816;2024-03-23T02:33:50;34.76;33.19;40.63;;
82130;Laerm;75912;50.450;9.816;2024-03-23T02:36:16;56.23;33.34;75.99;;
82130;Laerm;75912;50.450;9.816;2024-03-23T02:38:41;51.40;33.00;69.45;;
82130;Laerm;75912;50.450;9.816;2024-03-23T02:41:06;52.81;33.12;71.35;;
82130;Laerm;75912;50.450;9.816;2024-03-23T02:43:32;35.99;32.58;53.41;;
82130;Laerm;75912;50.450;9.816;2024-03-23T02:45:57;48.31;33.21;64.67;;
82130;Laerm;75912;50.450;9.816;2024-03-23T02:48:22;34.63;33.05;40.15;;
82130;Laerm;75912;50.450;9.816;2024-03-23T02:50:48;52.37;33.04;68.39;;
82130;Laerm;75912;50.450;9.816;2024-03-23T02:53:14;52.12;33.11;67.76;;
82130;Laerm;75912;50.450;9.816;2024-03-23T02:55:39;59.63;33.99;80.72;;
82130;Laerm;75912;50.450;9.816;2024-03-23T02:58:04;48.35;33.31;66.85;;
82130;Laerm;75912;50.450;9.816;2024-03-23T03:00:30;53.53;33.39;73.27;;
82130;Laerm;75912;50.450;9.816;2024-03-23T03:02:55;37.21;33.06;53.13;;
82130;Laerm;75912;50.450;9.816;2024-03-23T03:05:21;57.31;33.43;75.46;;
82130;Laerm;75912;50.450;9.816;2024-03-23T03:07:46;50.91;33.39;69.80;;
82130;Laerm;75912;50.450;9.816;2024-03-23T03:10:12;49.35;33.11;67.06;;
82130;Laerm;75912;50.450;9.816;2024-03-23T03:12:37;36.41;33.34;50.04;;
82130;Laerm;75912;50.450;9.816;2024-03-23T03:15:06;38.67;33.30;54.46;;
82130;Laerm;75912;50.450;9.816;2024-03-23T03:17:31;55.42;33.38;70.56;;
82130;Laerm;75912;50.450;9.816;2024-03-23T03:19:57;35.57;33.32;45.54;;
82130;Laerm;75912;50.450;9.816;2024-03-23T03:22:22;56.70;33.04;72.52;;
82130;Laerm;75912;50.450;9.816;2024-03-23T03:24:48;40.53;34.51;52.34;;
82130;Laerm;75912;50.450;9.816;2024-03-23T03:27:13;54.62;33.11;71.41;;
82130;Laerm;75912;50.450;9.816;2024-03-23T03:29:38;52.85;33.75;68.65;;
82130;Laerm;75912;50.450;9.816;2024-03-23T03:32:04;36.14;32.95;51.68;;
82130;Laerm;75912;50.450;9.816;2024-03-23T03:34:29;54.61;33.43;68.29;;
82130;Laerm;75912;50.450;9.816;2024-03-23T03:36:54;34.02;32.91;35.34;;
82130;Laerm;75912;50.450;9.816;2024-03-23T03:39:20;34.34;33.17;37.20;;
82130;Laerm;75912;50.450;9.816;2024-03-23T03:41:45;48.29;33.50;65.91;;
82130;Laerm;75912;50.450;9.816;2024-03-23T03:44:11;56.80;33.55;74.34;;
82130;Laerm;75912;50.450;9.816;2024-03-23T03:46:36;34.47;33.33;36.60;;
82130;Laerm;75912;50.450;9.816;2024-03-23T03:49:01;48.91;33.40;67.18;;
82130;Laerm;75912;50.450;9.816;2024-03-23T03:51:27;53.74;34.04;69.30;;
82130;Laerm;75912;50.450;9.816;2024-03-23T03:53:52;54.63;34.03;72.22;;
82130;Laerm;75912;50.450;9.816;2024-03-23T03:56:17;49.62;34.16;66.91;;
82130;Laerm;75912;50.450;9.816;2024-03-23T03:58:43;57.65;33.85;74.81;;
82130;Laerm;75912;50.450;9.816;2024-03-23T04:01:08;47.08;33.40;64.25;;
82130;Laerm;75912;50.450;9.816;2024-03-23T04:03:34;58.69;34.05;73.91;;
82130;Laerm;75912;50.450;9.816;2024-03-23T04:05:59;36.16;34.05;41.85;;
82130;Laerm;75912;50.450;9.816;2024-03-23T04:08:25;50.93;34.76;68.94;;
82130;Laerm;75912;50.450;9.816;2024-03-23T04:10:50;35.61;34.04;41.86;;
82130;Laerm;75912;50.450;9.816;2024-03-23T04:13:15;49.92;33.83;69.20;;
82130;Laerm;75912;50.450;9.816;2024-03-23T04:15:41;51.54;34.49;66.16;;
82130;Laerm;75912;50.450;9.816;2024-03-23T04:18:06;48.57;33.95;67.00;;
82130;Laerm;75912;50.450;9.816;2024-03-23T04:20:32;49.75;34.36;62.55;;
82130;Laerm;75912;50.450;9.816;2024-03-23T04:22:58;52.32;34.28;67.92;;
82130;Laerm;75912;50.450;9.816;2024-03-23T04:25:23;47.18;33.87;63.37;;
82130;Laerm;75912;50.450;9.816;2024-03-23T04:27:48;52.92;34.49;68.11;;
82130;Laerm;75912;50.450;9.816;2024-03-23T04:30:14;51.81;35.08;67.11;;
82130;Laerm;75912;50.450;9.816;2024-03-23T04:32:40;52.10;35.28;68.33;;
82130;Laerm;75912;50.450;9.816;2024-03-23T04:35:07;53.97;35.13;69.79;;
82130;Laerm;75912;50.450;9.816;2024-03-23T04:37:34;50.19;36.74;65.62;;
82130;Laerm;75912;50.450;9.816;2024-03-23T04:40:00;42.86;36.90;51.72;;
82130;Laerm;75912;50.450;9.816;2024-03-23T04:42:26;53.93;37.45;65.18;;
82130;Laerm;75912;50.450;9.816;2024-03-23T04:44:52;49.52;36.86;67.38;;
82130;Laerm;75912;50.450;9.816;2024-03-23T04:47:18;55.34;37.23;69.99;;
82130;Laerm;75912;50.450;9.816;2024-03-23T04:49:43;55.60;38.11;66.58;;
82130;Laerm;75912;50.450;9.816;2024-03-23T04:52:08;56.92;38.00;69.92;;
82130;Laerm;75912;50.450;9.816;2024-03-23T04:54:34;57.72;37.52;70.71;;
82130;Laerm;75912;50.450;9.816;2024-03-23T04:56:59;51.25;37.39;65.95;;
82130;Laerm;75912;50.450;9.816;2024-03-23T04:59:25;58.49;36.71;75.33;;
82130;Laerm;75912;50.450;9.816;2024-03-23T05:01:50;58.12;38.48;72.83;;
82130;Laerm;75912;50.450;9.816;2024-03-23T05:04:15;55.47;35.96;67.28;;
82130;Laerm;75912;50.450;9.816;2024-03-23T05:06:41;48.81;35.34;65.03;;
82130;Laerm;75912;50.450;9.816;2024-03-23T05:09:06;50.39;36.10;65.85;;
82130;Laerm;75912;50.450;9.816;2024-03-23T05:11:32;55.89;36.33;70.29;;
82130;Laerm;75912;50.450;9.816;2024-03-23T05:13:58;58.43;36.17;76.55;;
82130;Laerm;75912;50.450;9.816;2024-03-23T05:16:23;55.61;35.57;71.36;;
82130;Laerm;75912;50.450;9.816;2024-03-23T05:18:49;54.86;35.88;71.40;;
82130;Laerm;75912;50.450;9.816;2024-03-23T05:21:14;58.88;37.97;73.01;;
82130;Laerm;75912;50.450;9.816;2024-03-23T05:23:40;58.58;37.23;73.24;;
82130;Laerm;75912;50.450;9.816;2024-03-23T05:26:05;53.50;38.90;71.10;;
82130;Laerm;75912;50.450;9.816;2024-03-23T05:28:31;56.58;39.79;70.83;;
82130;Laerm;75912;50.450;9.816;2024-03-23T05:30:56;59.90;39.98;75.11;;
82130;Laerm;75912;50.450;9.816;2024-03-23T05:33:24;58.65;38.70;72.70;;
82130;Laerm;75912;50.450;9.816;2024-03-23T05:35:56;61.72;40.04;77.46;;
82130;Laerm;75912;50.450;9.816;2024-03-23T05:38:22;62.62;41.12;76.59;;
82130;Laerm;75912;50.450;9.816;2024-03-23T05:43:32;57.10;38.40;72.13;;
82130;Laerm;75912;50.450;9.816;2024-03-23T05:45:58;59.85;40.34;71.29;;
82130;Laerm;75912;50.450;9.816;2024-03-23T05:48:26;59.46;45.74;70.29;;
82130;Laerm;75912;50.450;9.816;2024-03-23T05:50:52;55.27;41.15;69.98;;
82130;Laerm;75912;50.450;9.816;2024-03-23T05:53:18;57.68;44.60;71.02;;
82130;Laerm;75912;50.450;9.816;2024-03-23T05:55:45;53.46;43.24;66.73;;
82130;Laerm;75912;50.450;9.816;2024-03-23T05:58:10;56.62;44.41;71.01;;
82130;Laerm;75912;50.450;9.816;2024-03-23T06:00:37;58.75;43.32;71.86;;
82130;Laerm;75912;50.450;9.816;2024-03-23T06:03:03;54.23;42.52;71.82;;
82130;Laerm;75912;50.450;9.816;2024-03-23T06:05:28;64.04;44.16;76.49;;
82130;Laerm;75912;50.450;9.816;2024-03-23T06:07:53;58.20;42.46;74.03;;
82130;Laerm;75912;50.450;9.816;2024-03-23T06:10:19;59.53;40.35;75.34;;
82130;Laerm;75912;50.450;9.816;2024-03-23T06:12:47;60.33;40.53;75.42;;
82130;Laerm;75912;50.450;9.816;2024-03-23T06:15:14;61.02;39.88;77.42;;
82130;Laerm;75912;50.450;9.816;2024-03-23T06:17:39;59.26;39.75;72.56;;
82130;Laerm;75912;50.450;9.816;2024-03-23T06:20:05;62.45;37.74;76.79;;
82130;Laerm;75912;50.450;9.816;2024-03-23T06:22:32;57.62;37.38;70.34;;
82130;Laerm;75912;50.450;9.816;2024-03-23T06:24:57;51.16;38.65;68.59;;
82130;Laerm;75912;50.450;9.816;2024-03-23T06:27:22;61.10;40.01;76.03;;
82130;Laerm;75912;50.450;9.816;2024-03-23T06:29:48;57.35;38.52;71.94;;
82130;Laerm;75912;50.450;9.816;2024-03-23T06:32:13;58.33;38.97;74.07;;
82130;Laerm;75912;50.450;9.816;2024-03-23T06:34:40;64.02;41.97;78.65;;
82130;Laerm;75912;50.450;9.816;2024-03-23T06:37:06;56.73;38.79;70.20;;
82130;Laerm;75912;50.450;9.816;2024-03-23T06:39:32;55.62;36.66;69.45;;
82130;Laerm;75912;50.450;9.816;2024-03-23T06:41:58;61.89;38.19;75.89;;
82130;Laerm;75912;50.450;9.816;2024-03-23T06:44:23;60.83;38.49;75.24;;
82130;Laerm;75912;50.450;9.816;2024-03-23T06:46:48;60.86;37.25;73.70;;
82130;Laerm;75912;50.450;9.816;2024-03-23T06:49:14;58.48;37.25;72.35;;
82130;Laerm;75912;50.450;9.816;2024-03-23T06:51:40;58.98;38.50;71.43;;
82130;Laerm;75912;50.450;9.816;2024-03-23T06:54:06;55.93;38.26;71.10;;
82130;Laerm;75912;50.450;9.816;2024-03-23T06:56:31;60.26;40.92;72.92;;
82130;Laerm;75912;50.450;9.816;2024-03-23T06:58:57;59.43;41.84;72.83;;
82130;Laerm;75912;50.450;9.816;2024-03-23T07:01:22;61.41;42.46;73.69;;
82130;Laerm;75912;50.450;9.816;2024-03-23T07:03:48;60.86;40.53;74.71;;
82130;Laerm;75912;50.450;9.816;2024-03-23T07:06:13;61.32;40.12;76.74;;
82130;Laerm;75912;50.450;9.816;2024-03-23T07:08:38;58.74;39.51;72.16;;
82130;Laerm;75912;50.450;9.816;2024-03-23T07:11:04;61.25;38.69;73.15;;
82130;Laerm;75912;50.450;9.816;2024-03-23T07:13:30;58.66;36.92;73.80;;
82130;Laerm;75912;50.450;9.816;2024-03-23T07:15:55;59.32;37.40;71.29;;
82130;Laerm;75912;50.450;9.816;2024-03-23T07:18:21;62.16;38.01;77.94;;
82130;Laerm;75912;50.450;9.816;2024-03-23T07:20:55;60.43;40.02;71.61;;
82130;Laerm;75912;50.450;9.816;2024-03-23T07:23:24;61.69;37.61;72.89;;
82130;Laerm;75912;50.450;9.816;2024-03-23T07:25:58;62.02;38.06;74.31;;
82130;Laerm;75912;50.450;9.816;2024-03-23T07:28:24;59.19;37.26;72.61;;
82130;Laerm;75912;50.450;9.816;2024-03-23T07:31:08;60.64;39.50;72.96;;
82130;Laerm;75912;50.450;9.816;2024-03-23T07:33:37;61.89;35.99;74.67;;
82130;Laerm;75912;50.450;9.816;2024-03-23T07:36:03;59.31;37.05;70.80;;
82130;Laerm;75912;50.450;9.816;2024-03-23T07:38:28;59.59;35.86;71.06;;
82130;Laerm;75912;50.450;9.816;2024-03-23T07:41:04;58.88;35.69;74.18;;
82130;Laerm;75912;50.450;9.816;2024-03-23T07:43:29;59.72;34.82;72.38;;
82130;Laerm;75912;50.450;9.816;2024-03-23T07:45:54;63.06;34.48;76.15;;
82130;Laerm;75912;50.450;9.816;2024-03-23T07:48:22;59.81;35.72;71.76;;
82130;Laerm;75912;50.450;9.816;2024-03-23T07:53:22;56.75;37.59;70.49;;
82130;Laerm;75912;50.450;9.816;2024-03-23T07:55:57;57.81;34.46;71.81;;
82130;Laerm;75912;50.450;9.816;2024-03-23T07:58:23;62.03;34.89;72.60;;
82130;Laerm;75912;50.450;9.816;2024-03-23T08:00:48;57.51;36.38;70.77;;
82130;Laerm;75912;50.450;9.816;2024-03-23T08:03:14;60.50;36.40;71.20;;
82130;Laerm;75912;50.450;9.816;2024-03-23T08:05:39;58.11;39.26;73.02;;
82130;Laerm;75912;50.450;9.816;2024-03-23T08:08:04;62.73;39.78;72.78;;
82130;Laerm;75912;50.450;9.816;2024-03-23T08:10:30;62.70;42.04;74.96;;
82130;Laerm;75912;50.450;9.816;2024-03-23T08:12:55;60.11;41.44;77.05;;
82130;Laerm;75912;50.450;9.816;2024-03-23T08:15:20;65.47;38.08;79.40;;
82130;Laerm;75912;50.450;9.816;2024-03-23T08:17:46;63.70;39.00;84.63;;
82130;Laerm;75912;50.450;9.816;2024-03-23T08:20:11;62.14;38.65;72.48;;
82130;Laerm;75912;50.450;9.816;2024-03-23T08:22:37;61.65;35.63;73.56;;
82130;Laerm;75912;50.450;9.816;2024-03-23T08:25:02;62.66;41.86;73.79;;
82130;Laerm;75912;50.450;9.816;2024-03-23T08:27:27;58.82;38.43;73.99;;
82130;Laerm;75912;50.450;9.816;2024-03-23T08:29:53;60.49;39.28;72.86;;
82130;Laerm;75912;50.450;9.816;2024-03-23T08:32:18;61.82;37.94;73.85;;
82130;Laerm;75912;50.450;9.816;2024-03-23T08:34:44;61.16;37.24;74.86;;
82130;Laerm;75912;50.450;9.816;2024-03-23T08:37:09;62.12;39.12;75.01;;
82130;Laerm;75912;50.450;9.816;2024-03-23T08:39:34;61.13;41.90;70.88;;
82130;Laerm;75912;50.450;9.816;2024-03-23T08:42:00;61.34;40.14;73.18;;
82130;Laerm;75912;50.450;9.816;2024-03-23T08:44:25;62.83;37.88;76.54;;
82130;Laerm;75912;50.450;9.816;2024-03-23T08:46:50;61.26;40.31;72.96;;
82130;Laerm;75912;50.450;9.816;2024-03-23T08:49:16;63.86;41.06;76.53;;
82130;Laerm;75912;50.450;9.816;2024-03-23T08:51:41;59.87;37.96;72.63;;
82130;Laerm;75912;50.450;9.816;2024-03-23T08:54:06;58.83;38.16;71.37;;
82130;Laerm;75912;50.450;9.816;2024-03-23T08:56:32;62.88;40.60;74.06;;
82130;Laerm;75912;50.450;9.816;2024-03-23T08:58:57;60.86;36.89;74.44;;
82130;Laerm;75912;50.450;9.816;2024-03-23T09:01:23;61.54;36.01;71.12;;
82130;Laerm;75912;50.450;9.816;2024-03-23T09:03:48;59.42;38.32;73.60;;
82130;Laerm;75912;50.450;9.816;2024-03-23T09:06:14;63.60;39.39;76.39;;
82130;Laerm;75912;50.450;9.816;2024-03-23T09:08:40;59.32;36.06;74.46;;
82130;Laerm;75912;50.450;9.816;2024-03-23T09:11:12;63.19;41.14;72.99;;
82130;Laerm;75912;50.450;9.816;2024-03-23T09:13:38;61.31;41.61;73.48;;
82130;Laerm;75912;50.450;9.816;2024-03-23T09:16:04;62.01;37.39;72.57;;
82130;Laerm;75912;50.450;9.816;2024-03-23T09:18:31;61.19;36.78;71.74;;
82130;Laerm;75912;50.450;9.816;2024-03-23T09:20:57;60.93;38.82;73.10;;
82130;Laerm;75912;50.450;9.816;2024-03-23T09:23:22;57.15;35.85;70.12;;
82130;Laerm;75912;50.450;9.816;2024-03-23T09:25:47;64.85;36.15;74.13;;
82130;Laerm;75912;50.450;9.816;2024-03-23T09:28:13;61.88;35.74;74.80;;
82130;Laerm;75912;50.450;9.816;2024-03-23T09:30:38;60.62;38.60;72.69;;
82130;Laerm;75912;50.450;9.816;2024-03-23T09:33:07;61.49;36.55;74.02;;
82130;Laerm;75912;50.450;9.816;2024-03-23T09:35:36;60.40;36.93;71.23;;
82130;Laerm;75912;50.450;9.816;2024-03-23T09:38:01;61.68;36.62;73.23;;
82130;Laerm;75912;50.450;9.816;2024-03-23T09:40:26;62.65;40.69;72.83;;
82130;Laerm;75912;50.450;9.816;2024-03-23T09:42:52;63.07;43.04;73.53;;
82130;Laerm;75912;50.450;9.816;2024-03-23T09:45:18;60.51;35.82;75.73;;
82130;Laerm;75912;50.450;9.816;2024-03-23T09:47:45;63.90;40.61;75.09;;
82130;Laerm;75912;50.450;9.816;2024-03-23T09:50:12;58.91;36.60;70.50;;
82130;Laerm;75912;50.450;9.816;2024-03-23T09:52:37;60.85;37.94;72.32;;
82130;Laerm;75912;50.450;9.816;2024-03-23T09:55:03;61.13;39.86;72.91;;
82130;Laerm;75912;50.450;9.816;2024-03-23T09:57:29;58.47;37.09;72.57;;
82130;Laerm;75912;50.450;9.816;2024-03-23T09:59:54;63.95;39.86;72.60;;
82130;Laerm;75912;50.450;9.816;2024-03-23T10:02:20;61.73;38.03;73.17;;
82130;Laerm;75912;50.450;9.816;2024-03-23T10:04:46;62.52;38.61;72.83;;
82130;Laerm;75912;50.450;9.816;2024-03-23T10:07:20;63.42;42.20;73.94;;
82130;Laerm;75912;50.450;9.816;2024-03-23T10:09:46;63.08;40.12;76.34;;
82130;Laerm;75912;50.450;9.816;2024-03-23T10:12:12;62.02;40.84;73.85;;
82130;Laerm;75912;50.450;9.816;2024-03-23T10:14:41;61.30;46.81;73.20;;
82130;Laerm;75912;50.450;9.816;2024-03-23T10:17:16;61.18;42.80;71.78;;
82130;Laerm;75912;50.450;9.816;2024-03-23T10:19:43;60.44;40.40;73.29;;
82130;Laerm;75912;50.450;9.816;2024-03-23T10:22:17;59.27;38.83;71.54;;
82130;Laerm;75912;50.450;9.816;2024-03-23T10:24:42;61.42;37.45;71.41;;
82130;Laerm;75912;50.450;9.816;2024-03-23T10:27:08;63.09;39.11;76.18;;
82130;Laerm;75912;50.450;9.816;2024-03-23T10:29:33;60.14;42.61;73.31;;
82130;Laerm;75912;50.450;9.816;2024-03-23T10:32:07;59.86;37.16;72.78;;
82130;Laerm;75912;50.450;9.816;2024-03-23T10:34:32;62.58;36.47;73.86;;
82130;Laerm;75912;50.450;9.816;2024-03-23T10:36:57;62.84;38.11;74.39;;
82130;Laerm;75912;50.450;9.816;2024-03-23T10:39:23;62.74;41.49;73.61;;
82130;Laerm;75912;50.450;9.816;2024-03-23T10:41:52;59.30;38.62;81.34;;
82130;Laerm;75912;50.450;9.816;2024-03-23T10:44:18;59.96;37.87;70.40;;
82130;Laerm;75912;50.450;9.816;2024-03-23T10:46:44;60.11;38.60;71.76;;
82130;Laerm;75912;50.450;9.816;2024-03-23T10:49:13;62.36;37.68;72.95;;
82130;Laerm;75912;50.450;9.816;2024-03-23T10:51:38;60.67;37.55;73.26;;
82130;Laerm;75912;50.450;9.816;2024-03-23T10:54:04;61.77;40.51;76.62;;
82130;Laerm;75912;50.450;9.816;2024-03-23T10:56:29;62.82;38.70;76.03;;
82130;Laerm;75912;50.450;9.816;2024-03-23T10:58:58;62.16;41.50;75.78;;
82130;Laerm;75912;50.450;9.816;2024-03-23T11:01:25;61.18;39.98;75.89;;
82130;Laerm;75912;50.450;9.816;2024-03-23T11:03:51;61.95;45.49;74.15;;
82130;Laerm;75912;50.450;9.816;2024-03-23T11:06:37;61.61;39.42;74.21;;
82130;Laerm;75912;50.450;9.816;2024-03-23T11:09:03;62.93;41.67;71.22;;
82130;Laerm;75912;50.450;9.816;2024-03-23T11:11:28;60.75;38.97;72.51;;
82130;Laerm;75912;50.450;9.816;2024-03-23T11:13:57;61.39;39.80;74.47;;
82130;Laerm;75912;50.450;9.816;2024-03-23T11:16:24;62.20;43.97;75.09;;
82130;Laerm;75912;50.450;9.816;2024-03-23T11:18:49;63.63;40.14;74.61;;
82130;Laerm;75912;50.450;9.816;2024-03-23T11:24:14;57.84;37.63;70.70;;
82130;Laerm;75912;50.450;9.816;2024-03-23T11:26:40;61.35;39.31;78.31;;
82130;Laerm;75912;50.450;9.816;2024-03-23T11:29:08;62.50;45.53;71.57;;
82130;Laerm;75912;50.450;9.816;2024-03-23T11:31:34;60.10;41.44;72.70;;
82130;Laerm;75912;50.450;9.816;2024-03-23T11:34:04;61.26;39.65;71.96;;
82130;Laerm;75912;50.450;9.816;2024-03-23T11:36:30;59.98;36.46;71.09;;
82130;Laerm;75912;50.450;9.816;2024-03-23T11:38:55;63.12;40.21;71.85;;
82130;Laerm;75912;50.450;9.816;2024-03-23T11:41:20;59.98;38.62;73.38;;
82130;Laerm;75912;50.450;9.816;2024-03-23T11:43:46;61.87;41.80;71.48;;
82130;Laerm;75912;50.450;9.816;2024-03-23T11:46:11;59.50;37.91;71.83;;
82130;Laerm;75912;50.450;9.816;2024-03-23T11:48:49;62.67;41.32;72.88;;
82130;Laerm;75912;50.450;9.816;2024-03-23T11:51:14;59.76;38.13;75.01;;
82130;Laerm;75912;50.450;9.816;2024-03-23T11:53:40;62.55;40.31;79.86;;
82130;Laerm;75912;50.450;9.816;2024-03-23T11:56:05;61.24;38.50;76.74;;
82130;Laerm;75912;50.450;9.816;2024-03-23T11:58:30;61.64;47.79;71.80;;
82130;Laerm;75912;50.450;9.816;2024-03-23T12:00:59;60.88;46.79;70.40;;
82130;Laerm;75912;50.450;9.816;2024-03-23T12:03:25;61.69;43.28;71.37;;
82130;Laerm;75912;50.450;9.816;2024-03-23T12:05:52;61.19;42.86;73.37;;
82130;Laerm;75912;50.450;9.816;2024-03-23T12:08:24;58.99;43.15;70.18;;
82130;Laerm;75912;50.450;9.816;2024-03-23T12:10:53;61.17;38.62;72.50;;
82130;Laerm;75912;50.450;9.816;2024-03-23T12:13:19;62.20;37.36;73.99;;
82130;Laerm;75912;50.450;9.816;2024-03-23T12:15:45;61.16;35.88;70.85;;
82130;Laerm;75912;50.450;9.816;2024-03-23T12:18:10;62.62;39.15;71.35;;
82130;Laerm;75912;50.450;9.816;2024-03-23T12:20:37;60.73;37.46;71.40;;
82130;Laerm;75912;50.450;9.816;2024-03-23T12:23:09;57.77;36.20;70.96;;
82130;Laerm;75912;50.450;9.816;2024-03-23T12:25:38;62.90;38.50;72.78;;
82130;Laerm;75912;50.450;9.816;2024-03-23T12:28:04;62.74;38.96;73.00;;
82130;Laerm;75912;50.450;9.816;2024-03-23T12:30:31;61.48;37.39;70.50;;
82130;Laerm;75912;50.450;9.816;2024-03-23T12:32:57;58.91;36.06;71.49;;
82130;Laerm;75912;50.450;9.816;2024-03-23T12:35:23;63.02;35.97;72.29;;
82130;Laerm;75912;50.450;9.816;2024-03-23T12:37:48;60.50;37.30;71.56;;
82130;Laerm;75912;50.450;9.816;2024-03-23T12:40:14;63.54;39.65;75.27;;
82130;Laerm;75912;50.450;9.816;2024-03-23T12:42:39;61.19;40.43;72.11;;
82130;Laerm;75912;50.450;9.816;2024-03-23T12:45:04;62.03;42.38;70.19;;
82130;Laerm;75912;50.450;9.816;2024-03-23T12:47:30;57.72;37.74;70.21;;
82130;Laerm;75912;50.450;9.816;2024-03-23T12:49:56;61.79;37.45;79.22;;
82130;Laerm;75912;50.450;9.816;2024-03-23T12:52:21;62.76;40.90;72.59;;
82130;Laerm;75912;50.450;9.816;2024-03-23T12:54:49;60.54;39.12;75.58;;
82130;Laerm;75912;50.450;9.816;2024-03-23T12:57:14;60.35;36.00;71.59;;
82130;Laerm;75912;50.450;9.816;2024-03-23T12:59:39;60.89;41.37;70.65;;
82130;Laerm;75912;50.450;9.816;2024-03-23T13:02:05;63.23;38.72;73.73;;
82130;Laerm;75912;50.450;9.816;2024-03-23T13:04:31;61.38;37.64;71.13;;
82130;Laerm;75912;50.450;9.816;2024-03-23T13:06:56;60.70;43.30;71.70;;
82130;Laerm;75912;50.450;9.816;2024-03-23T13:09:22;61.71;45.50;73.30;;
82130;Laerm;75912;50.450;9.816;2024-03-23T13:11:47;62.33;39.82;71.61;;
82130;Laerm;75912;50.450;9.816;2024-03-23T13:14:12;63.61;38.87;75.13;;
82130;Laerm;75912;50.450;9.816;2024-03-23T13:16:40;61.04;42.84;73.71;;
82130;Laerm;75912;50.450;9.816;2024-03-23T13:19:05;60.03;42.79;72.94;;
82130;Laerm;75912;50.450;9.816;2024-03-23T13:21:30;58.91;37.03;72.22;;
82130;Laerm;75912;50.450;9.816;2024-03-23T13:23:56;60.00;38.27;72.71;;
82130;Laerm;75912;50.450;9.816;2024-03-23T13:26:21;61.28;40.63;70.99;;
82130;Laerm;75912;50.450;9.816;2024-03-23T13:28:47;62.70;40.80;74.12;;
82130;Laerm;75912;50.450;9.816;2024-03-23T13:31:12;59.16;36.74;73.01;;
82130;Laerm;75912;50.450;9.816;2024-03-23T13:33:38;61.33;36.19;74.94;;
82130;Laerm;75912;50.450;9.816;2024-03-23T13:36:03;61.72;38.56;72.81;;
82130;Laerm;75912;50.450;9.816;2024-03-23T13:38:28;59.44;37.76;74.50;;
82130;Laerm;75912;50.450;9.816;2024-03-23T13:40:54;62.01;40.68;71.57;;
82130;Laerm;75912;50.450;9.816;2024-03-23T13:43:21;59.64;37.54;71.79;;
82130;Laerm;75912;50.450;9.816;2024-03-23T13:45:47;61.40;40.60;71.22;;
82130;Laerm;75912;50.450;9.816;2024-03-23T13:48:13;56.89;40.21;69.21;;
82130;Laerm;75912;50.450;9.816;2024-03-23T13:50:40;61.01;42.90;71.67;;
82130;Laerm;75912;50.450;9.816;2024-03-23T13:53:05;59.84;40.60;71.14;;
82130;Laerm;75912;50.450;9.816;2024-03-23T13:55:31;61.26;38.21;73.00;;
82130;Laerm;75912;50.450;9.816;2024-03-23T13:57:56;60.94;41.69;71.24;;
82130;Laerm;75912;50.450;9.816;2024-03-23T14:00:22;57.63;38.39;72.85;;
82130;Laerm;75912;50.450;9.816;2024-03-23T14:02:48;64.93;43.91;74.57;;
82130;Laerm;75912;50.450;9.816;2024-03-23T14:05:14;59.94;41.98;73.49;;
82130;Laerm;75912;50.450;9.816;2024-03-23T14:07:39;59.77;39.42;73.47;;
82130;Laerm;75912;50.450;9.816;2024-03-23T14:10:04;60.36;42.17;72.72;;
82130;Laerm;75912;50.450;9.816;2024-03-23T14:12:31;63.44;44.06;76.08;;
82130;Laerm;75912;50.450;9.816;2024-03-23T14:14:57;61.77;45.67;73.49;;
82130;Laerm;75912;50.450;9.816;2024-03-23T14:17:22;63.58;48.14;76.23;;
82130;Laerm;75912;50.450;9.816;2024-03-23T14:19:47;62.90;48.22;72.37;;
82130;Laerm;75912;50.450;9.816;2024-03-23T14:22:13;62.67;44.23;72.08;;
82130;Laerm;75912;50.450;9.816;2024-03-23T14:24:38;61.56;38.60;73.20;;
82130;Laerm;75912;50.450;9.816;2024-03-23T14:27:04;63.85;37.96;76.79;;
82130;Laerm;75912;50.450;9.816;2024-03-23T14:29:30;60.65;39.79;72.81;;
82130;Laerm;75912;50.450;9.816;2024-03-23T14:31:56;61.72;40.28;72.19;;
82130;Laerm;75912;50.450;9.816;2024-03-23T14:34:21;62.40;39.09;72.92;;
82130;Laerm;75912;50.450;9.816;2024-03-23T14:36:47;62.19;42.57;73.47;;
82130;Laerm;75912;50.450;9.816;2024-03-23T14:39:12;60.79;40.20;72.11;;